Flight Number: EUR1065 Duration: 1:50
Departure: Gatwick Airport (EGKK) at 08:00 Distance: 732 Nm
Arrival: Katowice (EPKT) at 10:00 Equipment: MD-81

Weather Information
London / Gatwick Airport, United Kingdom (EGKK) 51-09N 000-11W 0M Nov 19, 2017 - 10:50 PM EST / 2017.11.20 0350 UTC
Wind: Variable at 2 MPH (2 KT):0
Visibility: greater than 7 mile(s):0
Sky conditions: mostly cloudy Temperature: 41 F (5 C) Dew Point: 39 F (4 C) Relative Humidity: 93% Pressure (altimeter): 30.09 in. Hg (1019 hPa)
ob: EGKK 200350Z VRB02KT 9999 BKN013 05/04 Q1019 cycle: 4
Sunrise: 07:31 Sunset: 16:01 (UTC)

Katowice, Poland (EPKT) 50-14N 019-02E 284M Nov 19, 2017 - 11:00 PM EST / 2017.11.20 0400 UTC
Wind: from the W (260 degrees) at 16 MPH (14 KT):0
Visibility: 1 mile(s):0
Sky conditions: overcast Weather: heavy snow showers; Cumulonimbus clouds observed Temperature: 33 F (1 C)
Windchill: 23 F (-5 C):1 Dew Point: 32 F (0 C) Relative Humidity: 93% Pressure (altimeter): 29.77 in. Hg (1008 hPa)
ob: EPKT 200400Z 26014KT 1800 +SHSN BKN002 BKN005 OVC007CB 01/M00 Q1008 cycle: 4
Sunrise: 06:11 Sunset: 14:47 (UTC)

TAF:2017/11/19 21:35 TAF AMD EPKT 192117Z 1921/2018 22013KT 9999 BKN020 TEMPO 1921/2001 23018G32KT 2000 SHSNRA BKN005 BKN012CB PROB40 TEMPO 1921/1924 1000 +TSSN BKN002 BKN008CB BECMG 2001/2003 28016KT TEMPO 2001/2009 27022G36KT 2000 SHSNRA BKN004 BKN010CB TEMPO 2009/2018 27018G28KT 3000 SHRASN BKN008 BKN014CB

Previous Pireps for this route
Date Aircraft Flight time Fuel used Landing rate On time
2012-07-16MD-811.45142000No
2012-10-17MD-8101.5613400-330Yes
2012-10-31MD-8101.5912788-609No
2012-11-18MD-8102.1313204-504Yes
2013-02-09MD-8102.1713520-303No
2013-04-03MD-8102.2915460-258No
2013-12-21MD-8102.0713453-108No
2014-02-08MD-8102.0412996-125Yes
2014-02-25MD-8102.0913728-50No
2014-06-07MD-8102.0714073-104Yes
2014-10-05MD-8102.0213185-181Yes
2015-07-19MD-8102.048363-509Yes
2016-04-14MD-8102.0212874-128Yes
2016-10-15MD-812.35186500No
2017-03-22MD-8102.0113701-175Yes
2017-08-23MD-812.0316032-1935Yes
(pireps marked green are flown by you)

Route map